createdAt,value
2023-05-20T00:00:11.133Z,20.73
2023-05-20T00:02:38.300Z,20.08
2023-05-20T00:05:05.286Z,21.50
2023-05-20T00:07:32.087Z,22.15
2023-05-20T00:09:58.560Z,20.38
2023-05-20T00:12:25.084Z,21.30
2023-05-20T00:14:53.696Z,19.42
2023-05-20T00:17:20.345Z,20.58
2023-05-20T00:19:46.813Z,23.48
2023-05-20T00:22:13.256Z,24.42
2023-05-20T00:24:39.699Z,20.83
2023-05-20T00:27:06.165Z,26.13
2023-05-20T00:29:33.902Z,21.90
2023-05-20T00:32:00.513Z,19.88
2023-05-20T00:34:26.997Z,21.60
2023-05-20T00:36:53.863Z,23.05
2023-05-20T00:39:20.284Z,20.70
2023-05-20T00:41:46.743Z,22.27
2023-05-20T00:44:13.274Z,21.73
2023-05-20T00:46:39.785Z,23.15
2023-05-20T00:49:06.722Z,18.95
2023-05-20T00:54:00.154Z,19.58
2023-05-20T00:56:29.902Z,17.35
2023-05-20T00:58:57.448Z,20.67
2023-05-20T01:01:23.910Z,20.08
2023-05-20T01:03:52.066Z,18.83
2023-05-20T01:06:18.570Z,18.00
2023-05-20T01:08:45.101Z,18.38
2023-05-20T01:11:20.783Z,16.75
2023-05-20T01:13:54.326Z,17.63
2023-05-20T01:16:24.475Z,17.10
2023-05-20T01:18:55.259Z,19.58
2023-05-20T01:21:22.198Z,17.80
2023-05-20T01:23:48.981Z,17.25
2023-05-20T01:26:15.448Z,17.38
2023-05-20T01:28:45.610Z,18.38
2023-05-20T01:31:20.856Z,17.30
2023-05-20T01:33:54.468Z,17.63
2023-05-20T01:36:22.031Z,15.25
2023-05-20T01:38:50.354Z,16.08
2023-05-20T01:41:17.313Z,20.20
2023-05-20T01:46:10.760Z,16.08
2023-05-20T01:48:38.317Z,15.70
2023-05-20T01:51:04.904Z,14.93
2023-05-20T01:53:31.502Z,16.48
2023-05-20T01:55:57.959Z,19.45
2023-05-20T01:58:24.406Z,19.88
2023-05-20T02:00:51.017Z,17.58
2023-05-20T02:03:17.558Z,20.00
2023-05-20T02:05:44.299Z,21.35
2023-05-20T02:08:10.941Z,17.48
2023-05-20T02:10:37.462Z,17.08
2023-05-20T02:13:03.897Z,16.75
2023-05-20T02:15:30.355Z,16.80
2023-05-20T02:17:58.028Z,17.42
2023-05-20T02:20:24.769Z,17.88
2023-05-20T02:22:51.194Z,19.10
2023-05-20T02:25:17.640Z,18.05
2023-05-20T02:27:44.096Z,19.08
2023-05-20T02:30:10.880Z,18.50
2023-05-20T02:32:38.232Z,18.77
2023-05-20T02:35:05.234Z,19.75
2023-05-20T02:39:58.275Z,18.92
2023-05-20T02:42:24.720Z,19.35
2023-05-20T02:44:53.318Z,19.63
2023-05-20T02:47:19.853Z,20.27
2023-05-20T02:49:47.110Z,18.70
2023-05-20T02:52:13.546Z,24.52
2023-05-20T02:54:40.007Z,20.63
2023-05-20T02:57:06.506Z,20.77
2023-05-20T02:59:32.969Z,19.98
2023-05-20T03:01:59.776Z,20.75
2023-05-20T03:04:27.102Z,19.15
2023-05-20T03:06:53.753Z,20.50
2023-05-20T03:09:20.612Z,19.17
2023-05-20T03:14:14.138Z,21.80
2023-05-20T03:16:40.798Z,20.50
2023-05-20T03:19:07.274Z,19.00
2023-05-20T03:21:34.232Z,20.17
2023-05-20T03:26:27.528Z,18.45
2023-05-20T03:28:53.965Z,19.35
2023-05-20T03:31:21.094Z,16.95
2023-05-20T03:33:47.597Z,19.25
2023-05-20T03:36:14.094Z,17.33
2023-05-20T03:38:40.515Z,20.67
2023-05-20T03:41:07.240Z,22.10
2023-05-20T03:43:33.673Z,18.70
2023-05-20T03:46:00.213Z,21.55
2023-05-20T03:48:26.705Z,15.35
2023-05-20T03:50:53.182Z,18.33
2023-05-20T03:53:20.827Z,17.15
2023-05-20T03:55:47.408Z,18.23
2023-05-20T03:58:15.405Z,19.85
2023-05-20T04:00:42.090Z,15.75
2023-05-20T04:03:08.944Z,17.23
2023-05-20T04:08:06.939Z,16.58
2023-05-20T04:10:33.696Z,19.85
2023-05-20T04:13:00.187Z,19.08
2023-05-20T04:15:29.695Z,17.95
2023-05-20T04:17:56.277Z,18.63
2023-05-20T04:20:22.740Z,18.95
2023-05-20T04:22:49.225Z,21.15
2023-05-20T04:25:15.725Z,19.63
2023-05-20T04:27:42.182Z,22.60
2023-05-20T04:30:09.829Z,22.83
2023-05-20T04:32:36.383Z,21.35
2023-05-20T04:35:03.005Z,24.15
2023-05-20T04:37:29.462Z,27.15
2023-05-20T04:39:55.904Z,26.85
2023-05-20T04:42:22.386Z,24.30
2023-05-20T04:44:49.084Z,24.65
2023-05-20T04:47:16.023Z,24.00
2023-05-20T04:52:08.957Z,25.38
2023-05-20T04:54:35.463Z,24.65
2023-05-20T04:57:02.831Z,27.58
2023-05-20T04:59:29.485Z,28.05
2023-05-20T05:01:56.170Z,24.35
2023-05-20T05:04:23.259Z,25.88
2023-05-20T05:06:49.821Z,28.70
2023-05-20T05:09:16.279Z,29.58
2023-05-20T05:11:42.708Z,29.15
2023-05-20T05:14:09.344Z,28.42
2023-05-20T05:16:35.837Z,25.95
2023-05-20T05:19:02.405Z,33.08
2023-05-20T05:21:28.933Z,28.65
2023-05-20T05:23:57.487Z,27.05
2023-05-20T05:26:24.787Z,28.00
2023-05-20T05:28:51.238Z,29.38
2023-05-20T05:31:17.681Z,30.42
2023-05-20T05:33:44.213Z,33.63
2023-05-20T05:36:10.764Z,27.98
2023-05-20T05:38:37.295Z,32.78
2023-05-20T05:41:03.927Z,31.30
2023-05-20T05:43:30.385Z,28.75
2023-05-20T05:45:56.888Z,29.10
2023-05-20T05:48:23.595Z,30.80
2023-05-20T05:50:50.171Z,26.40
2023-05-20T05:53:16.641Z,28.67
2023-05-20T05:55:43.198Z,26.45
2023-05-20T05:58:09.952Z,27.63
2023-05-20T06:00:36.495Z,30.42
2023-05-20T06:03:03.051Z,30.45
2023-05-20T06:05:30.006Z,27.58
2023-05-20T06:12:51.788Z,29.05
2023-05-20T06:15:18.391Z,30.90
2023-05-20T06:17:44.863Z,28.17
2023-05-20T06:20:11.899Z,31.80
2023-05-20T06:22:38.391Z,31.08
2023-05-20T06:25:06.303Z,28.55
2023-05-20T06:27:32.858Z,32.22
2023-05-20T06:29:59.648Z,28.00
2023-05-20T06:32:26.640Z,28.15
2023-05-20T06:37:19.566Z,31.10
2023-05-20T06:39:47.666Z,30.02
2023-05-20T06:42:14.106Z,28.00
2023-05-20T06:44:40.605Z,30.35
2023-05-20T06:47:07.032Z,30.25
2023-05-20T06:49:35.273Z,31.67
2023-05-20T06:52:02.139Z,32.00
2023-05-20T06:54:28.592Z,27.50
2023-05-20T06:56:55.040Z,30.27
2023-05-20T06:59:21.493Z,27.38
2023-05-20T07:01:48.113Z,27.17
2023-05-20T07:04:14.705Z,28.75
2023-05-20T07:06:41.594Z,31.17
2023-05-20T07:09:11.071Z,30.13
2023-05-20T07:11:37.539Z,30.13
2023-05-20T07:14:04.484Z,30.63
2023-05-20T07:19:21.141Z,30.65
2023-05-20T07:21:49.817Z,26.45
2023-05-20T07:24:20.867Z,28.95
2023-05-20T07:26:48.259Z,31.08
2023-05-20T07:29:14.808Z,28.70
2023-05-20T07:31:41.963Z,29.25
2023-05-20T07:34:08.659Z,26.77
2023-05-20T07:36:35.465Z,29.58
2023-05-20T07:39:04.378Z,27.25
2023-05-20T07:41:32.695Z,30.27
2023-05-20T07:43:59.161Z,28.33
2023-05-20T07:46:25.748Z,28.38
2023-05-20T07:48:52.503Z,27.60
2023-05-20T07:51:19.080Z,26.90
2023-05-20T07:53:45.674Z,28.58
2023-05-20T07:56:12.259Z,26.80
2023-05-20T07:58:41.690Z,28.63
2023-05-20T08:01:09.384Z,29.60
2023-05-20T08:03:37.029Z,27.20
2023-05-20T08:06:03.954Z,28.70
2023-05-20T08:08:33.368Z,28.27
2023-05-20T08:11:01.629Z,26.92
2023-05-20T08:13:28.324Z,27.08
2023-05-20T08:16:04.143Z,28.83
2023-05-20T08:18:30.795Z,26.55
2023-05-20T08:21:00.382Z,26.50
2023-05-20T08:23:27.479Z,25.85
2023-05-20T08:25:54.387Z,25.23
2023-05-20T08:30:48.874Z,27.92
2023-05-20T08:33:19.375Z,25.75
2023-05-20T08:35:46.322Z,24.67
